Olive Branch, MS (38654)

4:45 PM CDT on July 27, 2016 (GMT -0500)
KMSOLIVE9 | | Change Station

Elev 322 ft 34.95 °N, 89.88 °W | Updated 10 seconds ago

Overcast
Overcast
81.1 °F
Feels Like 89 °F
N
0.0
Wind Variable Wind from SW
Gusts 0.0 mph

Today
High -- | Low -- °F
--% Chance of Precip.
Yesterday
High -- | Low -- °F
Precip. -- in
Pressure 29.90 in
Visibility 10.0 miles
Clouds Few 3400 ft
Mostly Cloudy 8500 ft
Overcast 11000 ft
Heat Index 89 °F
Dew Point 79 °F
Humidity 93%
Rainfall 0.32 in
Snow Depth Not available.
6:05 AM 8:05 PM
Last Quarter, 39% visible
SPECI KMEM 272121Z 00000KT 10SM FEW034 BKN085 OVC110 28/24 A2990 RMK AO2 TSE21RAE04 P0000
Pressure 29.90 in
Visibility 10.0 miles
Clouds Few 3400 ft
Mostly Cloudy 8500 ft
Overcast 11000 ft
Heat Index 89 °F
Dew Point 79 °F
Humidity 93%
Rainfall 0.32 in
Snow Depth Not available.
6:05 AM 8:05 PM
Last Quarter, 39% visible
SPECI KMEM 272121Z 00000KT 10SM FEW034 BKN085 OVC110 28/24 A2990 RMK AO2 TSE21RAE04 P0000

10-Day Weather Forecast

Almanac

Astronomy

Jul. 27, 2016 Rise Set
Actual Time
Civil Twilight
Nautical Twilight
Astronomical Twilight
Moon
Length of Visible Light
Length of Day
Tomorrow will be .
, % of the Moon is Illuminated

Today's Extremes

State Highs State Lows

Community

WunderPhotos

Upload Photos

1,927,944 photos uploaded!

WunderBlog® & News

Nearby

Air Quality

  Air Quality AQ Index Pollutant
Not available.

Snow Depth

Station Depth Elevation

Earthquake Activity

City Distance Mag. Time & Date
Minimum magnitude displayed is 2.5.

Coastal Water Temperatures

Place Temperature

Stations

Nearby Weather Stations

Station Location Temp. Windchill Dew Point Humidity Wind Precip. Elev Updated Type
                   

Watches & Warnings

There are currently no watches in effect.